Time;durP1;ratioP1;P1;durP2;ratioP2;P2;SDS_P1;SDS_P2;PMS_P1;PMS_P2;Temp;Humidity;BMP_temperature;BMP_pressure;BME280_temperature;BME280_humidity;BME280_pressure;Samples;Min_cycle;Max_cycle;Signal;HPM_P1;HPM_P2
2021/01/27 05:55:28;;;;;;;15.55;11.98;;;;;;;;;;5032434;28;20392;-61
2021/01/27 05:57:58;;;;;;;14.05;10.32;;;;;;;;;;5032589;28;20104;-61
2021/01/27 06:00:28;;;;;;;14.85;11.75;;;;;;;;;;5032351;28;20039;-61
2021/01/27 06:02:54;;;;;;;18.08;12.93;;;;;;;;;;5033038;28;20021;-61
2021/01/27 06:05:30;;;;;;;15.27;11.43;;;;;;;;;;5033216;28;20048;-61
2021/01/27 06:08:07;;;;;;;18.20;12.95;;;;;;;;;;5033105;28;20480;-61
2021/01/27 06:10:33;;;;;;;17.55;12.68;;;;;;;;;;5032988;28;20563;-61
2021/01/27 06:13:17;;;;;;;15.75;12.10;;;;;;;;;;5031834;28;20419;-61
2021/01/27 06:15:43;;;;;;;16.83;11.80;;;;;;;;;;5032689;28;20395;-61
2021/01/27 06:18:19;;;;;;;17.67;11.20;;;;;;;;;;5033016;28;20022;-60
2021/01/27 06:20:46;;;;;;;14.30;10.82;;;;;;;;;;5034091;28;20063;-61
2021/01/27 06:23:14;;;;;;;15.82;11.25;;;;;;;;;;5037227;28;20025;-61
2021/01/27 06:25:52;;;;;;;14.23;10.82;;;;;;;;;;5035779;28;20124;-61
2021/01/27 06:28:20;;;;;;;12.27;10.07;;;;;;;;;;5036805;28;20037;-61
2021/01/27 06:30:51;;;;;;;12.95;10.52;;;;;;;;;;5036943;28;20029;-61
2021/01/27 06:33:35;;;;;;;13.10;9.65;;;;;;;;;;5037367;28;20052;-62
2021/01/27 06:36:08;;;;;;;13.15;9.60;;;;;;;;;;5036620;28;20484;-61
2021/01/27 06:38:40;;;;;;;16.25;11.00;;;;;;;;;;5017122;28;20037;-61
2021/01/27 06:41:12;;;;;;;11.02;9.32;;;;;;;;;;5017150;28;20157;-61
2021/01/27 06:44:00;;;;;;;10.88;9.05;;;;;;;;;;5017240;28;20030;-61
2021/01/27 06:46:45;;;;;;;12.43;9.98;;;;;;;;;;5034787;28;20029;-61
2021/01/27 06:49:21;;;;;;;12.43;9.55;;;;;;;;;;5036750;28;20037;-61
2021/01/27 06:52:06;;;;;;;13.45;10.20;;;;;;;;;;5036612;28;20037;-61
2021/01/27 06:54:38;;;;;;;8.32;6.95;;;;;;;;;;5036859;28;20083;-61
2021/01/27 06:57:13;;;;;;;10.98;9.45;;;;;;;;;;5036742;28;20060;-61
2021/01/27 06:59:38;;;;;;;13.18;10.00;;;;;;;;;;5035251;28;20469;-61
2021/01/27 07:02:14;;;;;;;13.30;10.45;;;;;;;;;;5034952;28;20052;-61
2021/01/27 07:04:58;;;;;;;14.32;9.95;;;;;;;;;;5035136;28;20427;-61
2021/01/27 07:07:29;;;;;;;9.10;7.32;;;;;;;;;;5036281;28;20447;-62
2021/01/27 07:09:55;;;;;;;9.77;7.47;;;;;;;;;;5036035;28;20032;-62
2021/01/27 07:12:35;;;;;;;11.30;7.97;;;;;;;;;;5035130;28;20018;-62
2021/01/27 07:15:04;;;;;;;10.63;8.77;;;;;;;;;;5035700;28;20523;-62
2021/01/27 07:17:48;;;;;;;9.75;7.63;;;;;;;;;;5036496;28;20025;-61
2021/01/27 07:20:26;;;;;;;9.52;7.95;;;;;;;;;;5035471;28;20533;-61
2021/01/27 07:22:58;;;;;;;9.38;8.32;;;;;;;;;;5036056;28;20038;-62
2021/01/27 07:25:24;;;;;;;8.55;6.68;;;;;;;;;;5036081;28;20506;-61
2021/01/27 07:28:11;;;;;;;10.20;7.63;;;;;;;;;;5035866;28;20049;-61
2021/01/27 07:30:39;;;;;;;10.95;6.93;;;;;;;;;;5028741;28;20503;-61
2021/01/27 07:33:10;;;;;;;10.55;8.43;;;;;;;;;;5034846;28;20028;-62
2021/01/27 07:35:35;;;;;;;;;;;;;;;;;;5036246;28;20035;-62
2021/01/27 07:38:06;;;;;;;7.07;6.28;;;;;;;;;;5035732;28;20007;-61
2021/01/27 07:40:31;;;;;;;10.48;8.45;;;;;;;;;;5035643;28;20514;-61
2021/01/27 07:43:01;;;;;;;10.90;7.47;;;;;;;;;;5035473;28;20021;-61
2021/01/27 07:45:36;;;;;;;8.70;6.47;;;;;;;;;;5035362;28;20443;-61
2021/01/27 07:48:15;;;;;;;9.13;6.72;;;;;;;;;;5034313;28;20065;-61
2021/01/27 07:50:41;;;;;;;9.38;7.60;;;;;;;;;;5035540;28;20041;-61
2021/01/27 07:53:13;;;;;;;11.93;7.88;;;;;;;;;;5035575;28;20382;-61
2021/01/27 07:55:42;;;;;;;10.48;7.97;;;;;;;;;;5035531;28;20026;-61
2021/01/27 07:58:10;;;;;;;9.20;7.72;;;;;;;;;;5035231;28;20487;-61
2021/01/27 08:00:39;;;;;;;10.85;7.90;;;;;;;;;;5035381;28;20112;-61
2021/01/27 08:03:25;;;;;;;10.98;7.55;;;;;;;;;;5035373;28;20384;-61
2021/01/27 08:05:56;;;;;;;9.40;7.47;;;;;;;;;;5035443;28;20090;-61
2021/01/27 08:08:22;;;;;;;10.10;8.00;;;;;;;;;;5035152;28;20120;-61
2021/01/27 08:10:50;;;;;;;14.18;9.05;;;;;;;;;;5035010;28;20576;-61
2021/01/27 08:13:23;;;;;;;9.60;7.05;;;;;;;;;;5034927;28;20483;-61
2021/01/27 08:16:06;;;;;;;9.05;6.15;;;;;;;;;;5033434;28;20053;-61
2021/01/27 08:18:32;;;;;;;11.02;8.40;;;;;;;;;;5033552;28;20407;-61
2021/01/27 08:21:16;;;;;;;7.30;5.68;;;;;;;;;;5034853;28;20026;-61
2021/01/27 08:23:46;;;;;;;5.47;4.65;;;;;;;;;;5035068;28;20044;-61
2021/01/27 08:26:12;;;;;;;6.93;5.82;;;;;;;;;;5033574;28;20112;-61
2021/01/27 08:28:37;;;;;;;6.82;5.93;;;;;;;;;;5033642;28;20124;-61
2021/01/27 08:31:09;;;;;;;7.55;6.00;;;;;;;;;;5034652;28;20040;-61
2021/01/27 08:33:46;;;;;;;9.65;6.43;;;;;;;;;;5034822;28;20026;-61
2021/01/27 08:36:24;;;;;;;7.55;5.97;;;;;;;;;;5034698;28;20095;-61
2021/01/27 08:38:52;;;;;;;6.95;5.85;;;;;;;;;;5034624;28;20482;-61
2021/01/27 08:41:37;;;;;;;11.20;7.55;;;;;;;;;;5034043;28;20083;-61
2021/01/27 08:44:02;;;;;;;7.80;6.28;;;;;;;;;;5034265;28;20031;-61
2021/01/27 08:46:40;;;;;;;5.65;5.03;;;;;;;;;;5034513;28;20134;-63
2021/01/27 08:49:08;;;;;;;5.88;5.32;;;;;;;;;;5034590;28;20030;-63
2021/01/27 08:51:45;;;;;;;6.68;5.00;;;;;;;;;;5033808;28;20032;-64
2021/01/27 08:54:29;;;;;;;6.55;5.07;;;;;;;;;;5033812;28;20036;-61
2021/01/27 08:57:13;;;;;;;6.80;4.82;;;;;;;;;;5034115;28;20435;-61
2021/01/27 08:59:54;;;;;;;6.45;5.28;;;;;;;;;;5034291;28;20080;-61
2021/01/27 09:02:35;;;;;;;8.23;5.65;;;;;;;;;;5032854;28;20029;-61
2021/01/27 09:05:03;;;;;;;9.63;6.53;;;;;;;;;;5034062;28;20103;-61
2021/01/27 09:07:28;;;;;;;8.13;5.47;;;;;;;;;;5034191;28;20341;-63
2021/01/27 09:09:56;;;;;;;9.75;6.18;;;;;;;;;;5033326;28;20036;-63
2021/01/27 09:12:26;;;;;;;6.57;4.72;;;;;;;;;;5033692;28;20346;-63
2021/01/27 09:14:53;;;;;;;5.95;4.50;;;;;;;;;;5032925;28;20053;-64
2021/01/27 09:17:20;;;;;;;5.07;4.07;;;;;;;;;;5034229;28;20025;-64
2021/01/27 09:19:53;;;;;;;6.63;4.95;;;;;;;;;;5034088;28;20049;-64
2021/01/27 09:22:22;;;;;;;6.18;4.90;;;;;;;;;;5033987;28;20541;-64
2021/01/27 09:24:48;;;;;;;5.03;4.57;;;;;;;;;;5033297;28;20028;-64
2021/01/27 09:27:15;;;;;;;5.22;3.85;;;;;;;;;;5033930;28;20021;-64
2021/01/27 09:29:41;;;;;;;5.47;4.55;;;;;;;;;;5033492;28;20032;-64
2021/01/27 09:32:12;;;;;;;7.45;5.05;;;;;;;;;;5033898;28;20021;-64
2021/01/27 09:34:37;;;;;;;5.22;4.72;;;;;;;;;;5031984;28;20033;-64
2021/01/27 09:37:04;;;;;;;9.13;6.03;;;;;;;;;;5033831;28;20025;-64
2021/01/27 09:39:31;;;;;;;6.05;4.63;;;;;;;;;;5033387;28;20029;-64
2021/01/27 09:41:58;;;;;;;6.35;5.32;;;;;;;;;;5033395;28;20025;-64
2021/01/27 09:44:36;;;;;;;9.88;5.55;;;;;;;;;;5033605;28;20032;-65
2021/01/27 09:47:12;;;;;;;8.98;6.40;;;;;;;;;;5033860;28;20033;-65
2021/01/27 09:49:45;;;;;;;7.85;6.35;;;;;;;;;;5033731;28;20030;-65
2021/01/27 09:52:12;;;;;;;9.63;6.40;;;;;;;;;;5033531;28;20049;-65
2021/01/27 09:54:40;;;;;;;9.75;7.18;;;;;;;;;;5033500;28;20063;-65
2021/01/27 09:57:06;;;;;;;9.75;7.07;;;;;;;;;;5033251;28;20033;-65
2021/01/27 09:59:32;;;;;;;9.93;7.22;;;;;;;;;;5033424;28;20143;-65
2021/01/27 10:01:57;;;;;;;11.77;7.97;;;;;;;;;;5033269;28;20024;-65
2021/01/27 10:04:31;;;;;;;14.95;8.20;;;;;;;;;;5033227;28;20017;-65
2021/01/27 10:07:06;;;;;;;8.65;6.30;;;;;;;;;;5032450;28;20030;-65
2021/01/27 10:09:32;;;;;;;12.93;6.82;;;;;;;;;;5032864;28;20397;-65
2021/01/27 10:12:06;;;;;;;9.93;6.50;;;;;;;;;;5032939;28;20028;-65
2021/01/27 10:14:33;;;;;;;10.68;7.07;;;;;;;;;;5032181;28;20048;-65
2021/01/27 10:17:03;;;;;;;8.02;6.10;;;;;;;;;;5032807;28;20026;-61
2021/01/27 10:19:31;;;;;;;6.80;5.45;;;;;;;;;;5032791;28;20036;-61
2021/01/27 10:21:58;;;;;;;7.03;5.25;;;;;;;;;;5032516;28;20088;-61
2021/01/27 10:25:00;;;;;;;4.28;3.75;;;;;;;;;;5013186;28;20080;-62
2021/01/27 10:27:35;;;;;;;5.97;4.43;;;;;;;;;;5010755;28;20033;-61
2021/01/27 10:30:24;;;;;;;5.28;4.15;;;;;;;;;;5028530;28;20041;-62
2021/01/27 10:32:49;;;;;;;6.20;4.40;;;;;;;;;;5031259;28;20025;-64
2021/01/27 10:35:27;;;;;;;4.90;4.22;;;;;;;;;;5032920;28;20522;-64
2021/01/27 10:38:14;;;;;;;6.15;4.20;;;;;;;;;;5032861;28;20056;-64
2021/01/27 10:41:00;;;;;;;5.28;4.22;;;;;;;;;;5032890;28;20029;-64
2021/01/27 10:43:28;;;;;;;7.20;4.95;;;;;;;;;;5032555;28;20025;-64
2021/01/27 10:45:54;;;;;;;7.72;5.30;;;;;;;;;;5031886;28;20070;-64
2021/01/27 10:48:21;;;;;;;7.32;5.50;;;;;;;;;;5031863;28;20558;-64
2021/01/27 10:50:48;;;;;;;7.05;5.28;;;;;;;;;;5033279;28;20048;-64
2021/01/27 10:53:16;;;;;;;7.45;6.18;;;;;;;;;;5032924;28;20368;-64
2021/01/27 10:55:42;;;;;;;5.97;4.75;;;;;;;;;;5032950;28;20021;-65
2021/01/27 10:58:09;;;;;;;7.50;5.38;;;;;;;;;;5032909;28;20025;-65
2021/01/27 11:00:35;;;;;;;5.85;4.55;;;;;;;;;;5032719;28;20032;-66
2021/01/27 11:03:00;;;;;;;7.97;5.45;;;;;;;;;;5032788;28;20037;-66
2021/01/27 11:05:27;;;;;;;4.55;3.90;;;;;;;;;;5031668;28;20028;-66
2021/01/27 11:07:53;;;;;;;7.60;5.38;;;;;;;;;;5034392;28;20418;-66
2021/01/27 11:10:19;;;;;;;6.25;4.47;;;;;;;;;;5036665;28;20115;-65
2021/01/27 11:12:44;;;;;;;6.63;4.75;;;;;;;;;;5036104;28;20071;-65
2021/01/27 11:15:10;;;;;;;4.78;4.05;;;;;;;;;;5035383;28;20042;-65
2021/01/27 11:17:36;;;;;;;4.07;3.65;;;;;;;;;;5036262;28;20377;-65
2021/01/27 11:20:02;;;;;;;4.47;3.67;;;;;;;;;;5036324;28;20045;-65
2021/01/27 11:22:27;;;;;;;4.78;3.97;;;;;;;;;;5035045;28;20033;-65
2021/01/27 11:24:53;;;;;;;3.58;3.25;;;;;;;;;;5036139;28;20380;-65
2021/01/27 11:27:20;;;;;;;4.18;3.42;;;;;;;;;;5035879;28;20027;-65
2021/01/27 11:29:46;;;;;;;3.60;3.05;;;;;;;;;;5033171;28;20353;-65
2021/01/27 11:32:11;;;;;;;4.65;3.50;;;;;;;;;;5036008;28;20056;-64
2021/01/27 11:34:37;;;;;;;5.97;4.22;;;;;;;;;;5036073;28;20017;-64
2021/01/27 11:37:02;;;;;;;3.97;3.60;;;;;;;;;;5036090;28;20049;-65
2021/01/27 11:39:28;;;;;;;8.57;4.93;;;;;;;;;;5036284;28;20021;-65
2021/01/27 11:41:53;;;;;;;5.47;3.75;;;;;;;;;;5035993;28;20029;-65
2021/01/27 11:44:19;;;;;;;7.07;3.97;;;;;;;;;;5035191;28;20075;-65
2021/01/27 11:46:46;;;;;;;5.40;4.10;;;;;;;;;;5036093;28;20104;-64
2021/01/27 11:49:12;;;;;;;5.88;4.22;;;;;;;;;;5035864;28;20010;-65
2021/01/27 11:51:38;;;;;;;5.07;3.83;;;;;;;;;;5034633;28;20064;-65
2021/01/27 11:54:03;;;;;;;5.90;3.85;;;;;;;;;;5034898;28;20044;-65
2021/01/27 11:56:29;;;;;;;7.35;4.57;;;;;;;;;;5035650;28;20116;-65
2021/01/27 11:58:54;;;;;;;6.82;4.40;;;;;;;;;;5035655;28;20421;-65
2021/01/27 12:01:20;;;;;;;5.30;4.57;;;;;;;;;;5035485;28;20037;-64
2021/01/27 12:03:45;;;;;;;5.88;3.55;;;;;;;;;;5034484;28;20017;-64
2021/01/27 12:06:11;;;;;;;6.57;4.22;;;;;;;;;;5035296;28;20037;-64
2021/01/27 12:08:36;;;;;;;8.43;4.95;;;;;;;;;;5034445;28;20032;-65
2021/01/27 12:11:02;;;;;;;7.40;4.85;;;;;;;;;;5035297;28;20096;-64
2021/01/27 12:13:27;;;;;;;6.15;4.20;;;;;;;;;;5034785;28;20021;-64
2021/01/27 12:15:53;;;;;;;7.13;3.92;;;;;;;;;;5034782;28;20048;-64
2021/01/27 12:18:19;;;;;;;6.68;4.03;;;;;;;;;;5034081;28;20108;-64
2021/01/27 12:20:46;;;;;;;6.65;4.57;;;;;;;;;;5034913;28;20025;-64
2021/01/27 12:23:12;;;;;;;8.73;4.45;;;;;;;;;;5033596;28;20033;-64
2021/01/27 12:25:38;;;;;;;10.10;4.68;;;;;;;;;;5034824;28;20026;-64
2021/01/27 12:28:04;;;;;;;7.70;4.90;;;;;;;;;;5033527;28;20037;-64
2021/01/27 12:30:29;;;;;;;7.75;4.20;;;;;;;;;;5034860;28;20026;-64
2021/01/27 12:32:55;;;;;;;9.73;5.57;;;;;;;;;;5034574;28;20452;-64
2021/01/27 12:35:21;;;;;;;7.53;4.40;;;;;;;;;;5034781;28;20357;-64
2021/01/27 12:37:47;;;;;;;6.10;3.88;;;;;;;;;;5034972;28;20033;-64
2021/01/27 12:40:14;;;;;;;6.28;4.45;;;;;;;;;;5034563;28;20029;-64
2021/01/27 12:42:41;;;;;;;6.93;4.28;;;;;;;;;;5034514;28;20361;-64
2021/01/27 12:45:07;;;;;;;6.38;4.07;;;;;;;;;;5032805;28;20464;-64
2021/01/27 12:47:33;;;;;;;8.88;4.97;;;;;;;;;;5032508;28;20033;-64
2021/01/27 12:49:59;;;;;;;8.63;5.68;;;;;;;;;;5034618;28;20029;-64
2021/01/27 12:52:25;;;;;;;11.57;6.72;;;;;;;;;;5031054;28;20475;-61
2021/01/27 12:54:50;;;;;;;10.60;6.97;;;;;;;;;;5032861;28;20028;-61
2021/01/27 12:57:16;;;;;;;11.52;7.35;;;;;;;;;;5034100;28;20032;-61
2021/01/27 12:59:43;;;;;;;13.07;7.68;;;;;;;;;;5033916;28;20025;-61
2021/01/27 13:02:08;;;;;;;16.52;9.20;;;;;;;;;;5034329;28;20079;-61
2021/01/27 13:04:34;;;;;;;11.55;7.35;;;;;;;;;;5033940;28;20010;-61
2021/01/27 13:07:00;;;;;;;10.25;6.55;;;;;;;;;;5034381;28;20029;-61
2021/01/27 13:09:25;;;;;;;15.30;8.10;;;;;;;;;;5034285;28;20013;-61
2021/01/27 13:11:51;;;;;;;10.30;6.80;;;;;;;;;;5034179;28;20498;-61
2021/01/27 13:14:21;;;;;;;11.25;7.30;;;;;;;;;;5033913;28;20033;-61
2021/01/27 13:16:47;;;;;;;9.23;6.70;;;;;;;;;;5033861;28;20033;-61
2021/01/27 13:19:13;;;;;;;9.73;7.28;;;;;;;;;;5033623;28;20029;-61
2021/01/27 13:21:38;;;;;;;16.08;7.68;;;;;;;;;;5033989;28;20028;-61
2021/01/27 13:24:04;;;;;;;11.50;8.10;;;;;;;;;;5032586;28;20399;-61
2021/01/27 13:26:29;;;;;;;12.18;7.60;;;;;;;;;;5033824;28;20425;-61
2021/01/27 13:28:55;;;;;;;11.70;6.65;;;;;;;;;;5033548;28;20022;-61
2021/01/27 13:31:20;;;;;;;11.10;6.80;;;;;;;;;;5032891;28;20033;-61
2021/01/27 13:33:45;;;;;;;13.75;7.45;;;;;;;;;;5034198;28;20053;-61
2021/01/27 13:36:11;;;;;;;11.13;7.20;;;;;;;;;;5033998;28;20057;-61
2021/01/27 13:38:36;;;;;;;11.50;7.00;;;;;;;;;;5033585;28;20096;-61
2021/01/27 13:41:02;;;;;;;13.07;7.22;;;;;;;;;;5033374;28;20476;-60
2021/01/27 13:43:28;;;;;;;11.68;6.63;;;;;;;;;;5033492;28;20033;-61
2021/01/27 13:45:53;;;;;;;11.45;7.00;;;;;;;;;;5033605;28;20121;-61
2021/01/27 13:48:20;;;;;;;11.30;7.03;;;;;;;;;;5033453;28;20037;-60
2021/01/27 13:50:45;;;;;;;8.75;6.13;;;;;;;;;;5033260;28;20053;-61
2021/01/27 13:53:11;;;;;;;10.70;6.93;;;;;;;;;;5032208;28;20088;-61
2021/01/27 13:55:36;;;;;;;11.82;7.72;;;;;;;;;;5033725;28;20021;-61
2021/01/27 13:58:02;;;;;;;14.40;8.18;;;;;;;;;;5033423;28;20029;-61
2021/01/27 14:00:27;;;;;;;11.73;7.72;;;;;;;;;;5033406;28;20029;-61
2021/01/27 14:02:53;;;;;;;15.75;9.50;;;;;;;;;;5033441;28;20083;-60
2021/01/27 14:05:22;;;;;;;20.88;11.35;;;;;;;;;;5033221;28;20037;-61
2021/01/27 14:07:49;;;;;;;15.80;8.70;;;;;;;;;;5033368;28;20033;-61
2021/01/27 14:10:41;;;;;;;12.98;7.25;;;;;;;;;;5033340;28;20035;-61
2021/01/27 14:13:07;;;;;;;10.60;8.07;;;;;;;;;;5032398;28;20507;-61
2021/01/27 14:15:32;;;;;;;12.18;7.78;;;;;;;;;;5032874;28;20049;-61
2021/01/27 14:17:58;;;;;;;17.52;10.60;;;;;;;;;;5033404;28;20112;-61
2021/01/27 14:20:26;;;;;;;14.85;8.80;;;;;;;;;;5033475;28;20044;-61
2021/01/27 14:22:52;;;;;;;16.00;9.02;;;;;;;;;;5033451;28;20372;-61
2021/01/27 14:25:18;;;;;;;11.48;8.15;;;;;;;;;;5033108;28;20033;-61
2021/01/27 14:27:44;;;;;;;12.73;7.93;;;;;;;;;;5032995;28;20025;-61
2021/01/27 14:30:10;;;;;;;12.27;8.27;;;;;;;;;;5032964;28;20053;-61
2021/01/27 14:32:36;;;;;;;17.20;10.48;;;;;;;;;;5032878;28;20492;-61
2021/01/27 14:35:01;;;;;;;17.67;10.40;;;;;;;;;;5032656;28;20025;-61
2021/01/27 14:37:27;;;;;;;16.92;10.13;;;;;;;;;;5033244;28;20101;-61
2021/01/27 14:39:52;;;;;;;17.40;9.82;;;;;;;;;;5032943;28;20112;-60
2021/01/27 14:42:18;;;;;;;12.30;8.18;;;;;;;;;;5035236;28;20040;-60
2021/01/27 14:44:44;;;;;;;10.65;6.93;;;;;;;;;;5036896;28;20034;-60
2021/01/27 14:47:10;;;;;;;13.98;8.13;;;;;;;;;;5035758;28;20384;-60
2021/01/27 14:49:36;;;;;;;10.30;6.90;;;;;;;;;;5036839;28;20103;-60
2021/01/27 14:52:04;;;;;;;11.77;7.10;;;;;;;;;;5036741;28;20052;-60
2021/01/27 14:54:39;;;;;;;11.77;7.70;;;;;;;;;;5036988;28;20091;-61
2021/01/27 14:57:05;;;;;;;16.00;9.27;;;;;;;;;;5036923;28;20026;-60
2021/01/27 14:59:31;;;;;;;14.40;9.10;;;;;;;;;;5036522;28;20025;-60
2021/01/27 15:01:56;;;;;;;13.57;9.13;;;;;;;;;;5036696;28;20037;-61
2021/01/27 15:04:22;;;;;;;16.13;10.70;;;;;;;;;;5036727;28;20491;-61
2021/01/27 15:06:47;;;;;;;19.05;12.32;;;;;;;;;;5037073;28;20025;-61
2021/01/27 15:09:13;;;;;;;16.45;10.45;;;;;;;;;;5036611;28;20037;-61
2021/01/27 15:11:39;;;;;;;12.45;8.10;;;;;;;;;;5036373;28;20037;-60
2021/01/27 15:14:05;;;;;;;15.82;8.70;;;;;;;;;;5036831;28;20076;-60
2021/01/27 15:16:30;;;;;;;12.60;8.02;;;;;;;;;;5035290;28;20427;-66
2021/01/27 15:18:56;;;;;;;10.02;6.38;;;;;;;;;;5035169;28;20064;-65
2021/01/27 15:21:21;;;;;;;9.93;6.85;;;;;;;;;;5036175;28;20088;-65
2021/01/27 15:23:46;;;;;;;8.27;5.82;;;;;;;;;;5036351;28;20043;-65
2021/01/27 15:26:12;;;;;;;10.68;6.68;;;;;;;;;;5035863;28;20036;-65
2021/01/27 15:28:37;;;;;;;12.65;7.38;;;;;;;;;;5036370;28;20033;-65
2021/01/27 15:31:03;;;;;;;9.95;6.65;;;;;;;;;;5035497;28;20404;-65
2021/01/27 15:33:28;;;;;;;10.15;5.90;;;;;;;;;;5034877;28;20040;-65
2021/01/27 15:35:54;;;;;;;13.13;7.93;;;;;;;;;;5036134;28;20029;-65
2021/01/27 15:38:19;;;;;;;15.45;8.52;;;;;;;;;;5036083;28;20472;-70
2021/01/27 15:40:45;;;;;;;15.82;8.90;;;;;;;;;;5036235;28;20036;-70
2021/01/27 15:43:14;;;;;;;15.80;6.72;;;;;;;;;;5036396;28;20167;-68
2021/01/27 15:45:41;;;;;;;12.48;6.90;;;;;;;;;;5035913;28;20581;-70
2021/01/27 15:48:06;;;;;;;11.27;5.90;;;;;;;;;;5035642;28;20115;-69
2021/01/27 15:50:32;;;;;;;16.40;6.15;;;;;;;;;;5035526;28;20065;-68
2021/01/27 15:52:58;;;;;;;13.32;7.10;;;;;;;;;;5035091;28;20018;-68
2021/01/27 15:55:24;;;;;;;12.00;6.18;;;;;;;;;;5035656;28;20040;-68
2021/01/27 15:57:50;;;;;;;10.77;6.25;;;;;;;;;;5035706;28;20036;-69
2021/01/27 16:00:16;;;;;;;12.25;6.97;;;;;;;;;;5035413;28;20029;-68
2021/01/27 16:02:42;;;;;;;11.73;6.70;;;;;;;;;;5033888;28;20084;-68
2021/01/27 16:05:09;;;;;;;11.55;6.57;;;;;;;;;;5032640;28;20030;-68
2021/01/27 16:07:36;;;;;;;13.45;7.43;;;;;;;;;;5034348;28;20121;-68
2021/01/27 16:10:02;;;;;;;11.52;5.72;;;;;;;;;;5034792;28;20107;-68
2021/01/27 16:12:28;;;;;;;12.70;6.88;;;;;;;;;;5035141;28;20021;-68
2021/01/27 16:15:07;;;;;;;14.52;7.80;;;;;;;;;;5033462;28;20041;-68
2021/01/27 16:17:36;;;;;;;16.63;9.35;;;;;;;;;;5035050;28;20021;-68
2021/01/27 16:20:02;;;;;;;20.02;9.98;;;;;;;;;;5035067;28;20021;-68
2021/01/27 16:22:28;;;;;;;18.50;9.60;;;;;;;;;;5034915;28;20071;-68
2021/01/27 16:24:54;;;;;;;20.52;10.10;;;;;;;;;;5034751;28;20148;-68
2021/01/27 16:27:20;;;;;;;17.15;9.48;;;;;;;;;;5034940;28;20041;-68
2021/01/27 16:29:50;;;;;;;16.48;8.35;;;;;;;;;;5034863;28;20377;-68
2021/01/27 16:32:18;;;;;;;18.33;9.40;;;;;;;;;;5034869;28;20029;-68
2021/01/27 16:34:43;;;;;;;21.65;10.85;;;;;;;;;;5034805;28;20025;-68
2021/01/27 16:37:09;;;;;;;31.65;14.52;;;;;;;;;;5034723;28;20029;-68
2021/01/27 16:39:34;;;;;;;29.17;15.15;;;;;;;;;;5033493;28;20092;-68
2021/01/27 16:42:02;;;;;;;35.10;16.13;;;;;;;;;;5034604;28;20036;-68
2021/01/27 16:44:27;;;;;;;23.75;11.93;;;;;;;;;;5033287;28;20025;-68
2021/01/27 16:46:53;;;;;;;19.80;11.20;;;;;;;;;;5034514;28;20025;-68
2021/01/27 16:49:18;;;;;;;23.50;10.60;;;;;;;;;;5034477;28;20014;-69
2021/01/27 16:51:44;;;;;;;18.17;9.85;;;;;;;;;;5034269;28;20126;-68
2021/01/27 16:54:10;;;;;;;18.95;9.68;;;;;;;;;;5034373;28;20108;-68
2021/01/27 16:56:36;;;;;;;20.38;9.88;;;;;;;;;;5034150;28;20025;-68
2021/01/27 16:59:01;;;;;;;21.95;10.88;;;;;;;;;;5033343;28;20423;-68
2021/01/27 17:01:27;;;;;;;22.15;10.82;;;;;;;;;;5033279;28;20095;-68
2021/01/27 17:03:53;;;;;;;21.80;11.45;;;;;;;;;;5034644;28;20029;-68
2021/01/27 17:06:19;;;;;;;22.48;11.40;;;;;;;;;;5034535;28;20080;-68
2021/01/27 17:08:45;;;;;;;26.70;11.57;;;;;;;;;;5034157;28;20017;-68
2021/01/27 17:11:14;;;;;;;25.02;12.32;;;;;;;;;;5034044;28;20026;-68
2021/01/27 17:13:40;;;;;;;26.33;12.48;;;;;;;;;;5034258;28;20463;-68
2021/01/27 17:16:27;;;;;;;19.75;10.55;;;;;;;;;;5019862;28;20045;-69
2021/01/27 17:18:56;;;;;;;15.68;7.55;;;;;;;;;;5028327;28;20380;-70
2021/01/27 17:21:23;;;;;;;15.00;8.18;;;;;;;;;;5032181;28;20037;-69
2021/01/27 17:23:48;;;;;;;21.13;9.35;;;;;;;;;;5033465;28;20025;-69
2021/01/27 17:26:13;;;;;;;19.80;9.27;;;;;;;;;;5032381;28;20039;-69
2021/01/27 17:28:47;;;;;;;15.15;8.15;;;;;;;;;;5033944;28;20030;-69
2021/01/27 17:31:12;;;;;;;21.30;10.65;;;;;;;;;;5032341;28;20032;-70
2021/01/27 17:33:38;;;;;;;21.67;11.82;;;;;;;;;;5032664;28;20438;-69
2021/01/27 17:36:04;;;;;;;20.42;10.75;;;;;;;;;;5033281;28;20014;-69
2021/01/27 17:38:30;;;;;;;17.75;8.88;;;;;;;;;;5034066;28;20026;-69
2021/01/27 17:40:56;;;;;;;18.45;9.88;;;;;;;;;;5033939;28;20356;-69
2021/01/27 17:43:25;;;;;;;21.55;10.70;;;;;;;;;;5033229;28;20026;-70
2021/01/27 17:45:50;;;;;;;19.45;10.45;;;;;;;;;;5033680;28;20426;-69
2021/01/27 17:48:17;;;;;;;24.85;11.80;;;;;;;;;;5032403;28;20049;-70
2021/01/27 17:50:43;;;;;;;26.50;12.52;;;;;;;;;;5033173;28;20017;-70
2021/01/27 17:53:10;;;;;;;33.60;13.77;;;;;;;;;;5033214;28;20112;-69
2021/01/27 17:55:35;;;;;;;35.60;14.93;;;;;;;;;;5033407;28;20509;-69
2021/01/27 17:58:01;;;;;;;31.25;13.60;;;;;;;;;;5031719;28;20063;-69
2021/01/27 18:00:28;;;;;;;32.35;14.82;;;;;;;;;;5032631;28;20029;-69
2021/01/27 18:02:55;;;;;;;27.58;13.70;;;;;;;;;;5033297;28;20026;-68
2021/01/27 18:05:22;;;;;;;27.05;13.82;;;;;;;;;;5032822;28;20479;-69
2021/01/27 18:07:48;;;;;;;36.65;17.35;;;;;;;;;;5032400;28;20075;-68
2021/01/27 18:10:14;;;;;;;42.55;20.10;;;;;;;;;;5032054;28;20033;-69
2021/01/27 18:12:43;;;;;;;42.13;20.58;;;;;;;;;;5029183;28;20070;-69
2021/01/27 18:15:10;;;;;;;53.03;23.67;;;;;;;;;;5032917;28;20129;-68
2021/01/27 18:17:35;;;;;;;47.25;22.20;;;;;;;;;;5054086;28;20037;-68
2021/01/27 18:20:02;;;;;;;41.33;20.08;;;;;;;;;;5037899;28;20050;-63
2021/01/27 18:22:28;;;;;;;41.75;20.65;;;;;;;;;;5049015;28;20119;-63
2021/01/27 18:24:53;;;;;;;41.05;19.63;;;;;;;;;;5033633;28;20068;-63
2021/01/27 18:27:19;;;;;;;39.90;18.75;;;;;;;;;;5036276;28;20041;-63
2021/01/27 18:29:44;;;;;;;39.75;19.20;;;;;;;;;;5029504;28;20035;-69
2021/01/27 18:32:10;;;;;;;45.90;20.38;;;;;;;;;;5035974;28;20033;-69
2021/01/27 18:34:37;;;;;;;39.65;19.00;;;;;;;;;;5036567;28;20022;-69
2021/01/27 18:37:02;;;;;;;37.95;17.50;;;;;;;;;;5036329;28;20029;-70
2021/01/27 18:39:28;;;;;;;37.58;17.17;;;;;;;;;;5036851;28;20028;-70
2021/01/27 18:41:54;;;;;;;34.50;17.15;;;;;;;;;;5037058;28;20039;-69
2021/01/27 18:44:20;;;;;;;36.03;18.75;;;;;;;;;;5035703;28;20032;-69
2021/01/27 18:46:46;;;;;;;43.97;20.08;;;;;;;;;;5035996;28;20449;-68
2021/01/27 18:49:12;;;;;;;32.80;18.63;;;;;;;;;;5036172;28;20021;-70
2021/01/27 18:51:38;;;;;;;36.17;19.92;;;;;;;;;;5035224;28;20110;-70
2021/01/27 18:54:05;;;;;;;37.05;20.13;;;;;;;;;;5034628;28;20083;-63
2021/01/27 18:56:31;;;;;;;36.40;19.83;;;;;;;;;;5036355;28;20124;-63
2021/01/27 18:58:56;;;;;;;44.25;21.70;;;;;;;;;;5034958;28;20132;-63
2021/01/27 19:01:22;;;;;;;40.38;20.95;;;;;;;;;;5036524;28;20084;-62
2021/01/27 19:03:48;;;;;;;35.92;19.60;;;;;;;;;;5036460;28;20538;-63
2021/01/27 19:06:14;;;;;;;44.63;23.13;;;;;;;;;;5033706;28;20176;-63
2021/01/27 19:08:39;;;;;;;57.20;28.25;;;;;;;;;;5032744;28;20467;-63
2021/01/27 19:11:08;;;;;;;46.67;23.92;;;;;;;;;;5031220;28;20037;-62
2021/01/27 19:13:33;;;;;;;45.90;24.80;;;;;;;;;;5032879;28;20017;-62
2021/01/27 19:15:59;;;;;;;47.45;26.58;;;;;;;;;;5032789;28;20041;-62
2021/01/27 19:18:25;;;;;;;54.75;29.77;;;;;;;;;;5032117;28;20120;-69
2021/01/27 19:20:51;;;;;;;53.63;27.90;;;;;;;;;;5030367;28;20147;-70
2021/01/27 19:23:16;;;;;;;44.78;23.38;;;;;;;;;;5030485;28;20060;-68
2021/01/27 19:25:42;;;;;;;50.47;24.40;;;;;;;;;;5031470;28;20034;-68
2021/01/27 19:28:08;;;;;;;49.63;23.88;;;;;;;;;;5027511;28;20033;-68
2021/01/27 19:30:36;;;;;;;45.60;23.75;;;;;;;;;;5027999;28;20036;-69
2021/01/27 19:33:02;;;;;;;44.22;22.15;;;;;;;;;;5028113;28;20025;-68
2021/01/27 19:35:30;;;;;;;45.75;21.80;;;;;;;;;;5027654;28;20525;-69
2021/01/27 19:37:56;;;;;;;46.65;23.13;;;;;;;;;;5027456;28;20025;-69
2021/01/27 19:40:22;;;;;;;41.67;21.17;;;;;;;;;;5027787;28;20037;-68
2021/01/27 19:42:48;;;;;;;39.03;20.20;;;;;;;;;;5027537;28;20029;-69
2021/01/27 19:45:15;;;;;;;41.35;20.52;;;;;;;;;;5027736;28;20034;-70
2021/01/27 19:47:41;;;;;;;40.10;21.30;;;;;;;;;;5027593;28;20137;-68
2021/01/27 19:50:07;;;;;;;38.05;20.90;;;;;;;;;;5026475;28;20051;-70
2021/01/27 19:52:33;;;;;;;39.97;20.17;;;;;;;;;;5027341;28;20091;-70
2021/01/27 19:54:59;;;;;;;40.22;21.98;;;;;;;;;;5027502;28;20120;-70
2021/01/27 19:57:24;;;;;;;39.25;22.17;;;;;;;;;;5023382;28;20113;-70
2021/01/27 19:59:50;;;;;;;41.15;21.88;;;;;;;;;;5026929;28;20026;-63
2021/01/27 20:02:16;;;;;;;42.80;21.50;;;;;;;;;;5027119;28;20021;-62
2021/01/27 20:04:41;;;;;;;42.05;22.17;;;;;;;;;;5026866;28;20148;-62
2021/01/27 20:07:07;;;;;;;47.47;23.52;;;;;;;;;;5027166;28;20454;-62
2021/01/27 20:09:33;;;;;;;41.40;22.05;;;;;;;;;;5026119;28;20040;-62
2021/01/27 20:12:02;;;;;;;43.30;22.92;;;;;;;;;;5026830;28;20521;-62
2021/01/27 20:14:27;;;;;;;42.92;22.52;;;;;;;;;;5027031;28;20079;-62
2021/01/27 20:16:54;;;;;;;45.67;23.65;;;;;;;;;;5026699;28;20100;-62
2021/01/27 20:19:19;;;;;;;43.10;23.27;;;;;;;;;;5025881;28;20084;-63
2021/01/27 20:21:45;;;;;;;46.35;24.38;;;;;;;;;;5027054;28;20021;-62
2021/01/27 20:24:10;;;;;;;56.63;28.65;;;;;;;;;;5028109;28;20432;-63
2021/01/27 20:26:36;;;;;;;63.25;31.80;;;;;;;;;;5027670;28;20028;-63
2021/01/27 20:29:03;;;;;;;70.53;34.33;;;;;;;;;;5026979;28;20152;-64
2021/01/27 20:31:29;;;;;;;73.75;36.00;;;;;;;;;;5027839;28;20112;-63